createdAt,value
2019-05-18T00:00:58.030Z,32.90
2019-05-18T00:06:03.269Z,36.40
2019-05-18T00:11:08.611Z,33.87
2019-05-18T00:16:13.888Z,37.20
2019-05-18T00:21:19.183Z,32.87
2019-05-18T00:26:24.501Z,32.70
2019-05-18T00:31:29.801Z,32.60
2019-05-18T00:36:35.371Z,32.23
2019-05-18T00:41:40.571Z,39.40
2019-05-18T00:46:45.966Z,40.97
2019-05-18T00:51:51.385Z,37.00
2019-05-18T00:56:56.631Z,43.77
2019-05-18T01:02:01.954Z,44.10
2019-05-18T01:07:07.099Z,52.00
2019-05-18T01:12:12.572Z,55.73
2019-05-18T01:17:18.011Z,53.33
2019-05-18T01:22:23.352Z,52.73
2019-05-18T01:27:28.824Z,50.27
2019-05-18T01:32:34.180Z,76.40
2019-05-18T01:37:39.842Z,98.30
2019-05-18T01:42:45.512Z,60.63
2019-05-18T01:47:50.972Z,49.77
2019-05-18T01:52:56.734Z,54.17
2019-05-18T01:58:01.960Z,49.33
2019-05-18T02:03:07.185Z,47.13
2019-05-18T02:08:12.631Z,44.43
2019-05-18T02:13:17.979Z,47.50
2019-05-18T02:18:29.073Z,65.53
2019-05-18T02:23:30.135Z,75.43
2019-05-18T02:28:35.483Z,54.80
2019-05-18T02:33:40.951Z,46.37
2019-05-18T02:38:46.343Z,47.60
2019-05-18T02:43:51.682Z,42.83
2019-05-18T02:48:57.016Z,43.93
2019-05-18T02:54:02.475Z,38.67
2019-05-18T02:59:07.933Z,45.70
2019-05-18T03:04:14.153Z,46.80
2019-05-18T03:09:19.577Z,48.00
2019-05-18T03:14:24.886Z,46.40
2019-05-18T03:19:30.112Z,58.30
2019-05-18T03:24:35.759Z,56.27
2019-05-18T03:29:41.014Z,53.63
2019-05-18T03:34:46.236Z,55.77
2019-05-18T03:39:51.334Z,57.50
2019-05-18T03:44:56.807Z,49.63
2019-05-18T03:50:02.354Z,37.00
2019-05-18T03:55:07.824Z,36.70
2019-05-18T04:00:13.110Z,37.50
2019-05-18T04:05:18.531Z,33.83
2019-05-18T04:10:28.102Z,33.57
2019-05-18T04:15:33.185Z,35.07
2019-05-18T04:20:38.684Z,41.13
2019-05-18T04:25:44.275Z,37.53
2019-05-18T04:30:49.674Z,31.07
2019-05-18T04:35:55.131Z,23.30
2019-05-18T04:41:00.492Z,28.73
2019-05-18T04:46:05.640Z,30.47
2019-05-18T04:51:11.118Z,28.43
2019-05-18T04:56:16.469Z,23.87
2019-05-18T05:01:21.871Z,20.63
2019-05-18T05:06:26.950Z,20.80
2019-05-18T05:11:32.091Z,26.47
2019-05-18T05:16:37.235Z,23.07
2019-05-18T05:21:42.468Z,20.33
2019-05-18T05:26:47.959Z,21.13
2019-05-18T05:31:53.311Z,18.03
2019-05-18T05:36:58.476Z,22.20
2019-05-18T05:42:03.710Z,18.53
2019-05-18T05:47:08.908Z,21.20
2019-05-18T05:52:14.218Z,19.73
2019-05-18T05:57:19.586Z,22.47
2019-05-18T06:02:24.835Z,22.27
2019-05-18T06:07:30.216Z,25.73
2019-05-18T06:12:35.691Z,25.53
2019-05-18T06:17:41.021Z,28.13
2019-05-18T06:22:46.457Z,24.83
2019-05-18T06:27:51.598Z,28.27
2019-05-18T06:32:56.825Z,28.67
2019-05-18T06:38:01.903Z,27.53
2019-05-18T06:43:07.078Z,26.23
2019-05-18T06:48:12.326Z,28.67
2019-05-18T06:53:17.488Z,29.93
2019-05-18T06:58:23.808Z,34.07
2019-05-18T07:03:29.376Z,31.27
2019-05-18T07:08:36.278Z,33.37
2019-05-18T07:13:41.715Z,47.17
2019-05-18T07:18:46.875Z,49.63
2019-05-18T07:23:52.028Z,89.27
2019-05-18T07:28:57.380Z,38.67
2019-05-18T07:34:02.628Z,129.93
2019-05-18T07:39:08.610Z,35.73
2019-05-18T07:44:13.816Z,22.97
2019-05-18T07:49:18.878Z,24.33
2019-05-18T07:54:24.394Z,19.93
2019-05-18T07:59:29.838Z,23.53
2019-05-18T08:04:35.112Z,18.00
2019-05-18T08:09:40.552Z,12.27
2019-05-18T08:14:45.715Z,17.07
2019-05-18T08:19:52.957Z,15.57
2019-05-18T08:24:58.284Z,19.40
2019-05-18T08:30:04.129Z,18.10
2019-05-18T08:35:09.917Z,25.47
2019-05-18T08:40:15.607Z,19.70
2019-05-18T08:45:21.045Z,28.00
2019-05-18T08:50:26.146Z,23.63
2019-05-18T08:55:31.310Z,21.80
2019-05-18T09:00:37.012Z,24.77
2019-05-18T09:05:42.784Z,25.27
2019-05-18T09:10:48.172Z,27.47
2019-05-18T09:15:53.561Z,29.30
2019-05-18T09:20:58.948Z,27.77
2019-05-18T09:26:04.547Z,28.73
2019-05-18T09:31:10.378Z,32.43
2019-05-18T09:36:15.568Z,24.47
2019-05-18T09:41:20.904Z,21.33
2019-05-18T09:46:26.266Z,17.17
2019-05-18T09:51:31.468Z,17.43
2019-05-18T09:56:36.683Z,15.60
2019-05-18T10:01:41.940Z,8.57
2019-05-18T10:06:47.041Z,7.57
2019-05-18T10:11:52.248Z,7.67
2019-05-18T10:16:57.556Z,8.60
2019-05-18T10:22:02.917Z,10.43
2019-05-18T10:27:08.125Z,9.73
2019-05-18T10:32:13.348Z,9.30
2019-05-18T10:37:18.695Z,9.20
2019-05-18T10:42:24.074Z,8.97
2019-05-18T10:47:29.454Z,10.37
2019-05-18T10:52:34.760Z,79.27
2019-05-18T10:57:40.068Z,15.07
2019-05-18T11:02:45.421Z,27.03
2019-05-18T11:07:50.736Z,21.30
2019-05-18T11:12:56.183Z,15.63
2019-05-18T11:18:01.398Z,9.20
2019-05-18T11:23:06.905Z,31.60
2019-05-18T11:28:12.203Z,12.03
2019-05-18T11:33:17.379Z,12.10
2019-05-18T11:38:23.129Z,7.53
2019-05-18T11:43:28.251Z,8.50
2019-05-18T11:48:33.595Z,5.70
2019-05-18T11:53:38.922Z,5.50
2019-05-18T11:58:44.067Z,7.30
2019-05-18T12:03:49.186Z,6.97
2019-05-18T12:08:54.371Z,6.60
2019-05-18T12:13:59.491Z,5.57
2019-05-18T12:19:04.772Z,6.50
2019-05-18T12:24:15.609Z,4.90
2019-05-18T12:29:17.650Z,13.30
2019-05-18T12:34:23.814Z,4.70
2019-05-18T12:39:29.201Z,4.80
2019-05-18T12:44:34.598Z,4.10
2019-05-18T12:49:39.769Z,3.70
2019-05-18T12:54:46.950Z,4.20
2019-05-18T12:59:51.822Z,6.30
2019-05-18T13:04:56.931Z,7.70
2019-05-18T13:10:02.079Z,9.43
2019-05-18T13:15:09.581Z,13.40
2019-05-18T13:20:17.124Z,12.63
2019-05-18T13:25:22.776Z,14.83
2019-05-18T13:30:28.093Z,15.00
2019-05-18T13:35:33.397Z,16.27
2019-05-18T13:40:38.741Z,20.07
2019-05-18T13:45:44.070Z,21.33
2019-05-18T13:50:49.416Z,22.80
2019-05-18T13:55:54.780Z,24.33
2019-05-18T14:01:00.159Z,22.03
2019-05-18T14:06:05.722Z,18.93
2019-05-18T14:11:10.964Z,21.47
2019-05-18T14:16:16.187Z,22.13
2019-05-18T14:21:23.156Z,22.97
2019-05-18T14:26:32.174Z,22.43
2019-05-18T14:31:37.530Z,24.43
2019-05-18T14:36:43.091Z,25.00
2019-05-18T14:41:49.771Z,18.43
2019-05-18T14:46:55.004Z,17.30
2019-05-18T14:52:00.399Z,17.30
2019-05-18T14:57:06.002Z,15.60
2019-05-18T15:02:11.619Z,13.03
2019-05-18T15:07:17.092Z,12.47
2019-05-18T15:12:22.388Z,11.00
2019-05-18T15:17:27.749Z,14.90
2019-05-18T15:22:33.832Z,11.97
2019-05-18T15:27:39.340Z,17.80
2019-05-18T15:32:44.668Z,10.27
2019-05-18T15:37:49.878Z,9.28
2019-05-18T15:42:55.406Z,9.20
2019-05-18T15:48:00.880Z,8.07
2019-05-18T15:53:06.282Z,8.45
2019-05-18T15:58:11.900Z,8.10
2019-05-18T16:03:17.211Z,7.33
2019-05-18T16:08:22.470Z,9.10
2019-05-18T16:13:27.956Z,11.57
2019-05-18T16:18:35.507Z,13.77
2019-05-18T16:23:40.899Z,16.80
2019-05-18T16:28:46.341Z,12.73
2019-05-18T16:33:51.663Z,12.00
2019-05-18T16:38:57.025Z,9.10
2019-05-18T16:44:02.942Z,10.43
2019-05-18T16:49:08.457Z,12.17
2019-05-18T16:54:14.621Z,20.97
2019-05-18T16:59:19.915Z,11.53
2019-05-18T17:04:25.258Z,13.53
2019-05-18T17:09:30.483Z,13.77
2019-05-18T17:14:36.174Z,13.43
2019-05-18T17:19:41.546Z,14.37
2019-05-18T17:24:47.009Z,18.10
2019-05-18T17:29:52.212Z,15.10
2019-05-18T17:34:57.722Z,15.93
2019-05-18T17:40:03.197Z,15.33
2019-05-18T17:45:09.269Z,17.30
2019-05-18T17:50:15.975Z,20.57
2019-05-18T17:55:21.283Z,13.80
2019-05-18T18:00:26.778Z,27.63
2019-05-18T18:05:32.415Z,19.57
2019-05-18T18:10:38.100Z,20.63
2019-05-18T18:15:43.613Z,22.03
2019-05-18T18:20:49.166Z,20.43
2019-05-18T18:25:54.584Z,21.87
2019-05-18T18:30:59.944Z,26.83
2019-05-18T18:36:05.498Z,33.70
2019-05-18T18:41:11.089Z,38.07
2019-05-18T18:46:16.629Z,36.30
2019-05-18T18:51:21.952Z,30.40
2019-05-18T18:56:27.560Z,24.10
2019-05-18T19:01:32.701Z,25.87
2019-05-18T19:06:37.956Z,31.40
2019-05-18T19:11:43.142Z,22.83
2019-05-18T19:16:48.395Z,31.87
2019-05-18T19:21:53.512Z,37.67
2019-05-18T19:26:58.815Z,39.70
2019-05-18T19:32:04.045Z,39.93
2019-05-18T19:37:09.326Z,46.63
2019-05-18T19:42:14.620Z,43.47
2019-05-18T19:47:19.874Z,44.00
2019-05-18T19:52:25.104Z,38.77
2019-05-18T19:57:30.324Z,25.73
2019-05-18T20:02:35.605Z,28.70
2019-05-18T20:07:40.831Z,27.77
2019-05-18T20:12:46.185Z,28.03
2019-05-18T20:17:51.411Z,30.17
2019-05-18T20:22:56.779Z,27.67
2019-05-18T20:28:02.115Z,28.17
2019-05-18T20:33:07.479Z,25.43
2019-05-18T20:38:12.982Z,25.90
2019-05-18T20:43:18.226Z,25.83
2019-05-18T20:48:23.629Z,21.37
2019-05-18T20:53:29.059Z,21.67
2019-05-18T20:58:40.155Z,20.27
2019-05-18T21:03:41.568Z,22.00
2019-05-18T21:08:47.084Z,21.60
2019-05-18T21:13:52.556Z,21.93
2019-05-18T21:18:57.814Z,18.93
2019-05-18T21:24:03.291Z,19.80
2019-05-18T21:29:08.832Z,20.93
2019-05-18T21:34:14.073Z,19.80
2019-05-18T21:39:19.388Z,23.10
2019-05-18T21:44:24.914Z,21.80
2019-05-18T21:49:30.265Z,23.67
2019-05-18T21:54:36.864Z,25.43
2019-05-18T21:59:42.444Z,22.03
2019-05-18T22:04:47.880Z,23.67
2019-05-18T22:09:53.877Z,24.53
2019-05-18T22:14:59.520Z,29.43
2019-05-18T22:20:06.209Z,32.77
2019-05-18T22:25:11.568Z,33.40
2019-05-18T22:30:16.825Z,31.23
2019-05-18T22:35:22.154Z,28.43
2019-05-18T22:40:27.498Z,29.50
2019-05-18T22:45:32.895Z,46.57
2019-05-18T22:50:38.369Z,38.47
2019-05-18T22:55:43.846Z,32.67
2019-05-18T23:00:49.287Z,31.37
2019-05-18T23:05:54.730Z,35.50
2019-05-18T23:11:01.267Z,30.20
2019-05-18T23:16:06.647Z,29.37
2019-05-18T23:21:12.142Z,30.20
2019-05-18T23:26:17.610Z,27.23
2019-05-18T23:31:22.864Z,28.63
2019-05-18T23:36:28.220Z,25.77
2019-05-18T23:41:33.675Z,25.47
2019-05-18T23:46:39.043Z,25.73
2019-05-18T23:51:44.191Z,26.63
2019-05-18T23:56:49.655Z,30.93
